Time;durP1;ratioP1;P1;durP2;ratioP2;P2;SDS_P1;SDS_P2;PMS_P1;PMS_P2;Temp;Humidity;BMP_temperature;BMP_pressure;BME280_temperature;BME280_humidity;BME280_pressure;Samples;Min_cycle;Max_cycle;Signal;HPM_P1;HPM_P2
2021/12/04 00:00:50;;;;;;;1999.90;999.90;;;5.70;99.90;;;;;;5052548;28;20806;-72
2021/12/04 00:03:16;;;;;;;1999.90;999.90;;;5.60;99.90;;;;;;5052643;28;20152;-72
2021/12/04 00:05:55;;;;;;;1999.90;999.90;;;5.70;99.90;;;;;;5052178;28;20476;-72
2021/12/04 00:08:22;;;;;;;1999.90;999.90;;;5.70;99.90;;;;;;5052635;28;20474;-72
2021/12/04 00:10:48;;;;;;;1999.90;999.90;;;5.80;99.90;;;;;;5052308;28;20979;-72
2021/12/04 00:13:13;;;;;;;1999.90;999.90;;;5.70;99.90;;;;;;5052339;28;20406;-72
2021/12/04 00:15:39;;;;;;;1999.90;999.90;;;5.80;99.90;;;;;;5052085;28;20171;-72
2021/12/04 00:18:05;;;;;;;1999.90;999.90;;;5.80;99.90;;;;;;5052315;28;20167;-72
2021/12/04 00:20:31;;;;;;;1999.90;999.90;;;5.70;99.90;;;;;;5052185;28;20176;-72
2021/12/04 00:22:59;;;;;;;1999.90;999.90;;;5.80;99.90;;;;;;5052208;28;20233;-72
2021/12/04 00:25:27;;;;;;;1999.90;999.90;;;5.80;99.90;;;;;;5051907;28;20414;-72
2021/12/04 00:27:53;;;;;;;1999.90;999.90;;;5.90;99.90;;;;;;5052196;28;20775;-72
2021/12/04 00:30:18;;;;;;;1999.90;999.90;;;5.90;99.90;;;;;;5051954;28;20461;-72
2021/12/04 00:32:54;;;;;;;1999.90;999.90;;;5.90;99.90;;;;;;5052072;28;20406;-72
2021/12/04 00:35:34;;;;;;;1999.90;999.90;;;5.90;99.90;;;;;;5051778;28;20168;-72
2021/12/04 00:51:24;;;;;;;1999.90;999.90;;;5.90;99.90;;;;;;5051638;28;20472;-73
2021/12/04 00:53:54;;;;;;;1999.90;999.90;;;5.80;99.90;;;;;;5051876;28;20433;-72
2021/12/04 00:56:20;;;;;;;1999.90;999.90;;;5.80;99.90;;;;;;5051558;28;20544;-72
2021/12/04 00:58:45;;;;;;;1999.90;999.90;;;5.80;99.90;;;;;;5051790;28;20547;-73
2021/12/04 01:01:11;;;;;;;1999.90;999.90;;;5.80;99.90;;;;;;5051879;28;20513;-73
2021/12/04 01:03:37;;;;;;;1999.90;999.90;;;5.80;99.90;;;;;;5051718;28;20516;-73
2021/12/04 01:06:02;;;;;;;1999.90;999.90;;;5.80;99.90;;;;;;5051504;28;20176;-73
2021/12/04 01:08:28;;;;;;;1999.90;999.90;;;5.80;99.90;;;;;;5051749;28;20808;-73
2021/12/04 01:10:53;;;;;;;1999.90;999.90;;;5.80;99.90;;;;;;5051510;28;20225;-73
2021/12/04 01:13:20;;;;;;;1999.90;999.90;;;5.80;99.90;;;;;;5051681;28;20572;-72
2021/12/04 01:15:46;;;;;;;1999.90;999.90;;;5.70;99.90;;;;;;5051605;28;20605;-72
2021/12/04 01:18:12;;;;;;;1999.90;999.90;;;5.60;99.90;;;;;;5051739;28;20505;-72
2021/12/04 01:20:39;;;;;;;1999.90;999.90;;;5.60;99.90;;;;;;5051555;28;20183;-73
2021/12/04 01:23:05;;;;;;;1999.90;999.90;;;5.50;99.90;;;;;;5051563;28;20178;-72
2021/12/04 01:25:31;;;;;;;1999.90;999.90;;;5.50;99.90;;;;;;5051303;28;20180;-73
2021/12/04 01:27:56;;;;;;;1999.90;999.90;;;5.40;99.90;;;;;;5051717;28;20222;-73
2021/12/04 01:30:22;;;;;;;1999.90;999.90;;;5.30;99.90;;;;;;5051498;28;20458;-72
2021/12/04 01:32:48;;;;;;;1999.90;999.90;;;5.30;99.90;;;;;;5051510;28;20189;-72
2021/12/04 01:35:13;;;;;;;1999.90;999.90;;;5.20;99.90;;;;;;5051212;28;20630;-72
2021/12/04 01:37:39;;;;;;;1999.90;999.90;;;5.20;99.90;;;;;;5051530;28;20164;-72
2021/12/04 01:40:06;;;;;;;1999.90;999.90;;;5.10;99.90;;;;;;5051410;28;20164;-72
2021/12/04 01:42:36;;;;;;;1999.90;999.90;;;5.10;99.90;;;;;;5051362;28;20554;-73
2021/12/04 01:45:06;;;;;;;1999.90;999.90;;;5.10;99.90;;;;;;5051249;28;20405;-73
2021/12/04 01:47:32;;;;;;;1999.90;999.90;;;5.10;99.90;;;;;;5051326;28;20534;-72
2021/12/04 01:50:00;;;;;;;1999.90;999.90;;;5.10;99.90;;;;;;5051146;28;20190;-72
2021/12/04 01:52:26;;;;;;;1999.90;999.90;;;5.10;99.90;;;;;;5051222;28;20180;-73
2021/12/04 01:54:52;;;;;;;1999.90;999.90;;;5.10;99.90;;;;;;5051166;28;20176;-73
2021/12/04 01:57:20;;;;;;;1999.90;999.90;;;5.20;99.90;;;;;;5051310;28;20405;-73
2021/12/04 01:59:46;;;;;;;1999.90;999.90;;;5.20;99.90;;;;;;5054804;28;20186;-72
2021/12/04 02:02:12;;;;;;;1999.90;999.90;;;5.20;99.90;;;;;;5054742;28;20194;-73
2021/12/04 02:04:38;;;;;;;1999.90;999.90;;;5.20;99.90;;;;;;5054614;28;20246;-73
2021/12/04 02:07:04;;;;;;;1999.90;999.90;;;5.20;99.90;;;;;;5054752;28;20179;-74
2021/12/04 02:09:32;;;;;;;1999.90;999.90;;;5.20;99.90;;;;;;5054724;28;20163;-72
2021/12/04 02:11:58;;;;;;;1999.90;999.90;;;5.20;99.90;;;;;;5054505;28;20218;-74
2021/12/04 02:14:24;;;;;;;1999.90;999.90;;;5.30;99.90;;;;;;5054541;28;20630;-71
2021/12/04 02:16:50;;;;;;;1999.90;999.90;;;5.30;99.90;;;;;;5054668;28;20174;-71
2021/12/04 02:19:17;;;;;;;1999.90;999.90;;;5.40;99.90;;;;;;5054595;28;20167;-72
2021/12/04 02:21:43;;;;;;;1999.90;999.90;;;5.40;99.90;;;;;;5054341;28;20191;-72
2021/12/04 02:24:08;;;;;;;1999.90;999.90;;;5.40;99.90;;;;;;5054169;28;20660;-72
2021/12/04 02:26:34;;;;;;;1999.90;999.90;;;5.40;99.90;;;;;;5054408;28;20214;-72
2021/12/04 02:29:00;;;;;;;1999.90;999.90;;;5.40;99.90;;;;;;5054444;28;20191;-71
2021/12/04 02:31:26;;;;;;;1999.90;999.90;;;5.50;99.90;;;;;;5054254;28;20740;-71
2021/12/04 02:33:52;;;;;;;1999.90;999.90;;;5.40;99.90;;;;;;5054323;28;20167;-71
2021/12/04 02:36:19;;;;;;;1999.90;999.90;;;5.40;99.90;;;;;;5053922;28;20202;-74
2021/12/04 02:38:53;;;;;;;1999.90;999.90;;;5.30;99.90;;;;;;5054181;28;20407;-73
2021/12/04 02:41:21;;;;;;;1999.90;999.90;;;5.20;99.90;;;;;;5054135;28;20191;-74
2021/12/04 02:43:48;;;;;;;1999.90;999.90;;;5.20;99.90;;;;;;5054054;28;20167;-73
2021/12/04 02:46:16;;;;;;;1999.90;999.90;;;5.10;99.90;;;;;;5053729;28;20186;-73
2021/12/04 02:48:43;;;;;;;1999.90;999.90;;;5.20;99.90;;;;;;5054040;28;20180;-73
2021/12/04 02:51:10;;;;;;;1999.90;999.90;;;5.30;99.90;;;;;;5053599;28;20211;-74
2021/12/04 02:53:36;;;;;;;1999.90;999.90;;;5.30;99.90;;;;;;5054012;28;20593;-73
2021/12/04 02:56:04;;;;;;;1999.90;999.90;;;5.30;99.90;;;;;;5053476;28;20406;-73
2021/12/04 02:58:32;;;;;;;1999.90;999.90;;;5.30;99.90;;;;;;5053728;28;20707;-74
2021/12/04 03:00:57;;;;;;;1999.90;999.90;;;5.30;99.90;;;;;;5053657;28;20430;-73
2021/12/04 03:03:23;;;;;;;1999.90;999.90;;;5.30;99.90;;;;;;5053781;28;20233;-73
2021/12/04 03:05:51;;;;;;;1999.90;999.90;;;5.20;99.90;;;;;;5053464;28;20512;-74
2021/12/04 03:08:17;;;;;;;1999.90;999.90;;;5.20;99.90;;;;;;5053782;28;20258;-74
2021/12/04 03:10:43;;;;;;;1999.90;999.90;;;5.30;99.90;;;;;;5053476;28;20203;-74
2021/12/04 03:13:10;;;;;;;1999.90;999.90;;;5.30;99.90;;;;;;5053558;28;20460;-73
2021/12/04 03:15:38;;;;;;;1999.90;999.90;;;5.40;99.90;;;;;;5053230;28;20160;-74
2021/12/04 03:18:05;;;;;;;1999.90;999.90;;;5.30;99.90;;;;;;5053422;28;20551;-73
2021/12/04 03:20:32;;;;;;;1999.90;999.90;;;5.30;99.90;;;;;;5053542;28;20915;-74
2021/12/04 03:23:01;;;;;;;1999.90;999.90;;;5.40;99.90;;;;;;5053333;28;20243;-72
2021/12/04 03:25:27;;;;;;;1999.90;999.90;;;5.40;99.90;;;;;;5053112;28;20505;-73
2021/12/04 03:27:52;;;;;;;1999.90;999.90;;;5.40;99.90;;;;;;5053298;28;20417;-74
2021/12/04 03:41:02;;;;;;;1999.90;999.90;;;5.30;99.90;;;;;;5053192;28;20608;-74
2021/12/04 03:43:29;;;;;;;1999.90;999.90;;;5.20;99.90;;;;;;5053161;28;20184;-74
2021/12/04 03:45:59;;;;;;;1999.90;999.90;;;5.20;99.90;;;;;;5052678;28;20176;-73
2021/12/04 03:50:59;;;;;;;1999.90;999.90;;;5.20;99.90;;;;;;5052625;28;20466;-74
2021/12/04 03:53:25;;;;;;;1999.90;999.90;;;5.20;99.90;;;;;;5052677;28;20180;-73
2021/12/04 03:55:51;;;;;;;1999.90;999.90;;;5.10;99.90;;;;;;5052493;28;20536;-74
2021/12/04 03:58:17;;;;;;;1999.90;999.90;;;5.10;99.90;;;;;;5052705;28;20196;-74
2021/12/04 04:00:43;;;;;;;1999.90;999.90;;;5.10;99.90;;;;;;5052520;28;20661;-73
2021/12/04 04:03:09;;;;;;;1999.90;999.90;;;5.10;99.90;;;;;;5052722;28;20900;-73
2021/12/04 04:05:35;;;;;;;1999.90;999.90;;;5.20;99.90;;;;;;5052250;28;20176;-72
2021/12/04 04:08:00;;;;;;;1999.90;999.90;;;5.20;99.90;;;;;;5052533;28;20245;-74
2021/12/04 04:10:26;;;;;;;1999.90;999.90;;;5.10;99.90;;;;;;5052352;28;20199;-74
2021/12/04 04:12:52;;;;;;;1999.90;999.90;;;5.10;99.90;;;;;;5052451;28;20167;-74
2021/12/04 04:15:20;;;;;;;1999.90;999.90;;;5.10;99.90;;;;;;5052175;28;20175;-73
2021/12/04 04:17:45;;;;;;;1999.90;999.90;;;5.10;99.90;;;;;;5052366;28;20215;-74
2021/12/04 04:20:17;;;;;;;1999.90;999.90;;;5.20;99.90;;;;;;5052061;28;20240;-72
2021/12/04 04:22:44;;;;;;;1999.90;999.90;;;5.20;99.90;;;;;;5052186;28;20167;-74
2021/12/04 04:25:12;;;;;;;1999.90;999.90;;;5.20;99.90;;;;;;5052063;28;20394;-74
2021/12/04 04:27:38;;;;;;;1999.90;999.90;;;5.20;99.90;;;;;;5052215;28;20172;-74
2021/12/04 04:30:14;;;;;;;1999.90;999.90;;;5.20;99.90;;;;;;5052035;28;20164;-74
2021/12/04 04:32:41;;;;;;;1999.90;999.90;;;5.20;99.90;;;;;;5052133;28;20428;-73
2021/12/04 04:35:15;;;;;;;1999.90;999.90;;;5.20;99.90;;;;;;5051760;28;20705;-74
2021/12/04 04:38:09;;;;;;;1999.90;999.90;;;5.20;99.90;;;;;;5052057;28;20987;-74
2021/12/04 05:12:35;;;;;;;1999.90;999.90;;;5.40;99.90;;;;;;5051544;28;20412;-74
2021/12/04 05:15:10;;;;;;;1999.90;999.90;;;5.40;99.90;;;;;;5051402;28;20444;-72
2021/12/04 05:17:54;;;;;;;1999.90;999.90;;;5.40;99.90;;;;;;5051743;28;20163;-74
2021/12/04 05:20:34;;;;;;;1999.90;999.90;;;5.40;99.90;;;;;;5051606;28;20174;-74
2021/12/04 05:23:00;;;;;;;1999.90;999.90;;;5.30;99.90;;;;;;5051568;28;20783;-74
2021/12/04 05:25:26;;;;;;;1999.90;999.90;;;5.30;99.90;;;;;;5051326;28;20398;-74
2021/12/04 05:27:52;;;;;;;1999.90;999.90;;;5.30;99.90;;;;;;5051542;28;20625;-73
2021/12/04 05:30:18;;;;;;;1999.90;999.90;;;5.30;99.90;;;;;;5051309;28;20401;-74
2021/12/04 05:32:43;;;;;;;1999.90;999.90;;;5.30;99.90;;;;;;5052214;28;20171;-73
2021/12/04 05:35:09;;;;;;;1999.90;999.90;;;5.30;99.90;;;;;;5055115;28;20491;-73
2021/12/04 05:37:35;;;;;;;1999.90;999.90;;;5.30;99.90;;;;;;5055336;28;20207;-74
2021/12/04 05:40:01;;;;;;;1999.90;999.90;;;5.30;99.90;;;;;;5055309;28;20172;-74
2021/12/04 05:42:27;;;;;;;1999.90;999.90;;;5.30;99.90;;;;;;5055185;28;20556;-74
2021/12/04 05:44:53;;;;;;;1999.90;999.90;;;5.30;99.90;;;;;;5055084;28;20406;-74
2021/12/04 05:47:28;;;;;;;1999.90;999.90;;;5.30;99.90;;;;;;5055244;28;20188;-72
2021/12/04 05:50:00;;;;;;;1999.90;999.90;;;5.30;99.90;;;;;;5055013;28;20775;-73
2021/12/04 05:55:19;;;;;;;1999.90;999.90;;;5.30;99.90;;;;;;5054781;28;20905;-74
2021/12/04 05:57:45;;;;;;;1999.90;999.90;;;5.30;99.90;;;;;;5054939;28;20167;-73
2021/12/04 06:00:18;;;;;;;1999.90;999.90;;;5.30;99.90;;;;;;5054969;28;20500;-74
2021/12/04 06:02:44;;;;;;;1999.90;999.90;;;5.30;99.90;;;;;;5054888;28;20266;-74
2021/12/04 06:05:10;;;;;;;1999.90;999.90;;;5.30;99.90;;;;;;5054622;28;20249;-74
2021/12/04 06:07:36;;;;;;;1999.90;999.90;;;5.30;99.90;;;;;;5054788;28;20164;-73
2021/12/04 06:10:02;;;;;;;1999.90;999.90;;;5.30;99.90;;;;;;5054898;28;20442;-73
2021/12/04 06:12:28;;;;;;;1999.90;999.90;;;5.30;99.90;;;;;;5054478;28;20203;-73
2021/12/04 06:14:54;;;;;;;1999.90;999.90;;;5.30;99.90;;;;;;5054340;28;20394;-74
2021/12/04 06:17:20;;;;;;;1999.90;999.90;;;5.30;99.90;;;;;;5054608;28;20201;-74
2021/12/04 06:22:41;;;;;;;1999.90;999.90;;;5.30;99.90;;;;;;5054434;28;20460;-73
2021/12/04 06:25:24;;;;;;;1999.90;999.90;;;5.30;99.90;;;;;;5054195;28;20404;-73
2021/12/04 06:27:50;;;;;;;1999.90;999.90;;;5.30;99.90;;;;;;5054664;28;20413;-74
2021/12/04 06:30:17;;;;;;;1999.90;999.90;;;5.30;99.90;;;;;;5054293;28;20205;-74
2021/12/04 06:32:46;;;;;;;1999.90;999.90;;;5.40;99.90;;;;;;5054346;28;20214;-73
2021/12/04 06:35:12;;;;;;;1999.90;999.90;;;5.30;99.90;;;;;;5054007;28;20489;-74
2021/12/04 06:37:38;;;;;;;1999.90;999.90;;;5.30;99.90;;;;;;5054226;28;20481;-74
2021/12/04 06:40:05;;;;;;;1999.90;999.90;;;5.30;99.90;;;;;;5054123;28;20171;-74
2021/12/04 06:42:31;;;;;;;1999.90;999.90;;;5.40;99.90;;;;;;5053926;28;20437;-74
2021/12/04 06:44:57;;;;;;;1999.90;999.90;;;5.30;99.90;;;;;;5053487;28;20908;-72
2021/12/04 06:47:23;;;;;;;1999.90;999.90;;;5.40;99.90;;;;;;5054140;28;20182;-72
2021/12/04 06:49:53;;;;;;;1999.90;999.90;;;5.30;99.90;;;;;;5053971;28;20422;-73
2021/12/04 06:52:22;;;;;;;1999.90;999.90;;;5.30;99.90;;;;;;5053833;28;20457;-74
2021/12/04 06:54:55;;;;;;;1999.90;999.90;;;5.40;99.90;;;;;;5053631;28;20433;-74
2021/12/04 06:57:22;;;;;;;1999.90;999.90;;;5.30;99.90;;;;;;5053874;28;20398;-72
2021/12/04 06:59:49;;;;;;;1999.90;999.90;;;5.40;99.90;;;;;;5053938;28;20406;-73
2021/12/04 07:02:14;;;;;;;1999.90;999.90;;;5.30;99.90;;;;;;5053880;28;20725;-74
2021/12/04 07:04:40;;;;;;;1999.90;999.90;;;5.40;99.90;;;;;;5053480;28;20438;-74
2021/12/04 07:07:07;;;;;;;1999.90;999.90;;;5.40;99.90;;;;;;5053659;28;20201;-74
2021/12/04 07:09:33;;;;;;;1999.90;999.90;;;5.40;99.90;;;;;;5053654;28;20406;-74
2021/12/04 07:12:00;;;;;;;1999.90;999.90;;;5.40;99.90;;;;;;5053464;28;20758;-74
2021/12/04 07:14:26;;;;;;;1999.90;999.90;;;5.40;99.90;;;;;;5053536;28;20406;-72
2021/12/04 07:16:52;;;;;;;1999.90;999.90;;;5.40;99.90;;;;;;5053513;28;20395;-73
2021/12/04 07:19:17;;;;;;;1999.90;999.90;;;5.50;99.90;;;;;;5053517;28;20409;-72
2021/12/04 07:21:45;;;;;;;1999.90;999.90;;;5.60;99.90;;;;;;5053273;28;20657;-74
2021/12/04 07:24:11;;;;;;;1999.90;999.90;;;5.50;99.90;;;;;;5053061;28;20164;-73
2021/12/04 07:26:37;;;;;;;1999.90;999.90;;;5.40;99.90;;;;;;5053286;28;20408;-74
2021/12/04 07:29:03;;;;;;;1999.90;999.90;;;5.40;99.90;;;;;;5053291;28;20411;-73
2021/12/04 07:31:29;;;;;;;1999.90;999.90;;;5.40;99.90;;;;;;5053070;28;20225;-73
2021/12/04 07:33:55;;;;;;;1999.90;999.90;;;5.30;99.90;;;;;;5053226;28;20398;-71
2021/12/04 07:36:22;;;;;;;1999.90;999.90;;;5.30;99.90;;;;;;5052905;28;20957;-74
2021/12/04 07:38:48;;;;;;;1999.90;999.90;;;5.30;99.90;;;;;;5053024;28;20939;-73
2021/12/04 07:41:14;;;;;;;1999.90;999.90;;;5.40;99.90;;;;;;5052982;28;20513;-72
2021/12/04 07:43:40;;;;;;;1999.90;999.90;;;5.30;99.90;;;;;;5052912;28;20413;-73
2021/12/04 07:46:06;;;;;;;1999.90;999.90;;;5.40;99.90;;;;;;5052674;28;20970;-74
2021/12/04 07:48:31;;;;;;;1999.90;999.90;;;5.40;99.90;;;;;;5052818;28;20179;-73
2021/12/04 07:51:01;;;;;;;1999.90;999.90;;;5.30;99.90;;;;;;5052623;28;20627;-74
2021/12/04 07:53:26;;;;;;;1999.90;999.90;;;5.30;99.90;;;;;;5052708;28;20179;-72
2021/12/04 07:55:52;;;;;;;1999.90;999.90;;;5.40;99.90;;;;;;5051819;28;20452;-74
2021/12/04 07:58:18;;;;;;;1999.90;999.90;;;5.40;99.90;;;;;;5052722;28;20652;-74
2021/12/04 08:00:43;;;;;;;1999.90;999.90;;;5.40;99.90;;;;;;5052542;28;20188;-73
2021/12/04 08:03:09;;;;;;;1999.90;999.90;;;5.50;99.90;;;;;;5052648;28;20406;-73
2021/12/04 08:05:35;;;;;;;1999.90;999.90;;;5.50;99.90;;;;;;5052303;28;20703;-73
2021/12/04 08:08:02;;;;;;;1999.90;999.90;;;5.50;99.90;;;;;;5052526;28;20524;-73
2021/12/04 08:10:28;;;;;;;1999.90;999.90;;;5.50;99.90;;;;;;5052296;28;20195;-73
2021/12/04 08:12:53;;;;;;;1999.90;999.90;;;5.60;99.90;;;;;;5052409;28;20422;-73
2021/12/04 08:15:19;;;;;;;1999.90;999.90;;;5.60;99.90;;;;;;5052191;28;20168;-74
2021/12/04 08:17:45;;;;;;;1999.90;999.90;;;5.50;99.90;;;;;;5052360;28;20585;-72
2021/12/04 08:20:13;;;;;;;1999.90;999.90;;;5.60;99.90;;;;;;5052355;28;20413;-73
2021/12/04 08:22:40;;;;;;;1999.90;999.90;;;5.60;99.90;;;;;;5052229;28;20496;-73
2021/12/04 08:25:07;;;;;;;1999.90;999.90;;;5.70;99.90;;;;;;5052088;28;20407;-73
2021/12/04 08:27:33;;;;;;;1999.90;999.90;;;5.70;99.90;;;;;;5052226;28;20501;-71
2021/12/04 08:29:59;;;;;;;1999.90;999.90;;;5.70;99.90;;;;;;5052186;28;20408;-72
2021/12/04 08:32:25;;;;;;;1999.90;999.90;;;5.70;99.90;;;;;;5051960;28;20986;-73
2021/12/04 08:34:53;;;;;;;1999.90;999.90;;;5.70;99.90;;;;;;5052088;28;20171;-74
2021/12/04 08:37:20;;;;;;;1999.90;999.90;;;5.80;99.90;;;;;;5052109;28;20225;-73
2021/12/04 08:39:47;;;;;;;1999.90;999.90;;;5.80;99.90;;;;;;5052004;28;20472;-72
2021/12/04 08:42:13;;;;;;;1999.90;999.90;;;5.90;99.90;;;;;;5051945;28;20480;-73
2021/12/04 08:44:38;;;;;;;1999.90;999.90;;;5.90;99.90;;;;;;5051756;28;20896;-73
2021/12/04 08:47:04;;;;;;;1999.90;999.90;;;5.90;99.90;;;;;;5052005;28;20410;-73
2021/12/04 08:49:32;;;;;;;1999.90;999.90;;;6.00;99.90;;;;;;5052017;28;20756;-73
2021/12/04 08:51:58;;;;;;;1999.90;999.90;;;6.10;99.90;;;;;;5051846;28;20476;-74
2021/12/04 08:54:24;;;;;;;1999.90;999.90;;;6.10;99.90;;;;;;5051703;28;20406;-72
2021/12/04 08:56:50;;;;;;;1999.90;999.90;;;6.20;99.90;;;;;;5051947;28;20406;-72
2021/12/04 08:59:15;;;;;;;1999.90;999.90;;;6.20;99.90;;;;;;5051865;28;20409;-72
2021/12/04 09:01:43;;;;;;;1999.90;999.90;;;6.30;99.90;;;;;;5051615;28;20329;-71
2021/12/04 09:04:30;;;;;;;1999.90;999.90;;;6.40;99.90;;;;;;5051520;28;20175;-71
2021/12/04 09:06:56;;;;;;;1999.90;999.90;;;6.50;99.90;;;;;;5052895;28;20406;-71
2021/12/04 09:09:23;;;;;;;1999.90;999.90;;;6.50;99.90;;;;;;5055795;28;20445;-73
2021/12/04 09:11:52;;;;;;;1999.90;999.90;;;6.60;99.90;;;;;;5055691;28;20457;-72
2021/12/04 09:14:22;;;;;;;1999.90;999.90;;;6.70;99.90;;;;;;5055522;28;20402;-71
2021/12/04 09:16:51;;;;;;;1999.90;999.90;;;6.80;99.90;;;;;;5055774;28;20771;-71
2021/12/04 09:19:18;;;;;;;1999.90;999.90;;;6.70;99.90;;;;;;5055657;28;20413;-73
2021/12/04 09:21:44;;;;;;;1999.90;999.90;;;6.70;99.90;;;;;;5055607;28;20437;-73
2021/12/04 09:24:13;;;;;;;1999.90;999.90;;;6.80;99.90;;;;;;5055353;28;20431;-73
2021/12/04 09:32:17;;;;;;;1999.90;999.90;;;6.80;99.90;;;;;;5075158;28;20551;-72
2021/12/04 10:02:07;;;;;;;1999.90;999.90;;;6.50;99.90;;;;;;5073682;28;20425;-71
2021/12/04 10:23:58;;;;;;;1999.90;999.90;;;7.50;99.90;;;;;;5074177;28;20413;-71
2021/12/04 10:32:38;;;;;;;1999.90;999.90;;;7.90;99.90;;;;;;5073313;28;20513;-71
2021/12/04 10:35:08;;;;;;;1999.90;999.90;;;7.80;99.90;;;;;;5072974;28;20406;-71
2021/12/04 10:37:37;;;;;;;1999.90;999.90;;;7.70;99.90;;;;;;5073197;28;20398;-71
2021/12/04 10:40:08;;;;;;;1999.90;999.90;;;7.60;99.90;;;;;;5073828;28;20962;-70
2021/12/04 10:42:55;;;;;;;1999.90;999.90;;;7.40;99.90;;;;;;5073019;28;20520;-70
2021/12/04 10:45:31;;;;;;;1999.90;999.90;;;7.40;99.90;;;;;;5073217;28;20529;-70
2021/12/04 10:47:59;;;;;;;1999.90;999.90;;;7.30;99.90;;;;;;5061624;22;20553;-72
2021/12/04 10:50:38;;;;;;;1999.90;999.90;;;7.20;99.90;;;;;;5013375;28;20405;-72
2021/12/04 10:53:10;;;;;;;1999.90;999.90;;;7.20;99.90;;;;;;5013706;28;20395;-70
2021/12/04 10:58:46;;;;;;;1999.90;999.90;;;7.10;99.90;;;;;;5013686;28;20900;-70
2021/12/04 11:04:23;;;;;;;1999.90;999.90;;;6.90;99.90;;;;;;5013905;28;20400;-70
2021/12/04 11:06:47;;;;;;;1999.90;999.90;;;6.90;99.90;;;;;;5012453;28;20835;-69
2021/12/04 11:21:11;;;;;;;1999.90;999.90;;;7.00;99.90;;;;;;5013326;28;20940;-71
2021/12/04 11:26:12;;;;;;;1999.90;999.90;;;7.20;99.90;;;;;;5013257;28;20407;-71
2021/12/04 11:44:10;;;;;;;1999.90;999.90;;;7.40;99.90;;;;;;5012796;28;20407;-68
2021/12/04 11:46:43;;;;;;;1999.90;999.90;;;7.60;99.90;;;;;;5012698;28;20459;-69
2021/12/04 11:49:16;;;;;;;1999.90;999.90;;;7.50;99.90;;;;;;5012440;28;20439;-68
2021/12/04 11:51:46;;;;;;;1999.90;999.90;;;7.50;99.90;;;;;;5012557;28;20451;-68
2021/12/04 11:54:12;;;;;;;1999.90;999.90;;;7.60;99.90;;;;;;5012590;28;21252;-69
2021/12/04 11:56:39;;;;;;;1999.90;999.90;;;7.60;99.90;;;;;;5011746;28;21119;-70
2021/12/04 11:59:05;;;;;;;1999.90;999.90;;;7.60;99.90;;;;;;5012566;28;20491;-68
2021/12/04 12:01:34;;;;;;;1999.90;999.90;;;7.60;99.90;;;;;;5012539;28;20416;-70
2021/12/04 12:04:07;;;;;;;1999.90;999.90;;;7.80;99.90;;;;;;5011721;28;20431;-69
2021/12/04 12:06:39;;;;;;;1999.90;999.90;;;8.00;99.90;;;;;;5012162;28;20518;-71
2021/12/04 12:09:18;;;;;;;1999.90;999.90;;;8.20;99.90;;;;;;5011922;28;20443;-71
2021/12/04 12:11:56;;;;;;;1999.90;999.90;;;8.20;99.90;;;;;;5011740;28;20440;-71
2021/12/04 12:14:39;;;;;;;1999.90;999.90;;;8.30;99.90;;;;;;5011840;28;20407;-71
2021/12/04 12:17:06;;;;;;;1999.90;999.90;;;8.30;99.90;;;;;;5011772;28;20471;-70
2021/12/04 12:19:43;;;;;;;1999.90;999.90;;;8.30;99.90;;;;;;5011461;28;20793;-71
2021/12/04 12:25:17;;;;;;;1999.90;999.90;;;8.40;99.90;;;;;;5011817;28;20898;-71
2021/12/04 12:33:58;;;;;;;1999.90;999.90;;;8.20;99.90;;;;;;5011927;28;20487;-71
2021/12/04 12:36:13;;;;;;;1999.90;999.90;;;8.20;99.90;;;;;;5011114;28;20795;-71
2021/12/04 12:38:58;;;;;;;1999.90;999.90;;;8.20;99.90;;;;;;5011358;28;20881;-72
2021/12/04 12:41:27;;;;;;;1999.90;999.90;;;8.20;99.90;;;;;;5010980;28;20404;-71
2021/12/04 12:44:09;;;;;;;1999.90;999.90;;;8.20;99.90;;;;;;5010326;28;20408;-71
2021/12/04 12:46:42;;;;;;;1999.90;999.90;;;8.10;99.90;;;;;;5011460;28;20431;-71
2021/12/04 12:49:41;;;;;;;1999.90;999.90;;;7.90;99.90;;;;;;5010867;28;20434;-71
2021/12/04 12:52:12;;;;;;;1999.90;999.90;;;7.80;99.90;;;;;;5011763;28;20824;-71
2021/12/04 12:54:51;;;;;;;1999.90;999.90;;;7.90;99.90;;;;;;5011307;28;20435;-71
2021/12/04 12:57:23;;;;;;;1999.90;999.90;;;7.80;99.90;;;;;;5010647;28;20428;-71
2021/12/04 13:14:25;;;;;;;1999.90;999.90;;;7.60;99.90;;;;;;4989103;28;20424;-71
2021/12/04 13:17:09;;;;;;;1999.90;999.90;;;7.70;99.90;;;;;;5006864;28;20966;-71
2021/12/04 13:19:39;;;;;;;1999.90;999.90;;;7.70;99.90;;;;;;5010983;28;20502;-71
2021/12/04 13:22:09;;;;;;;1999.90;999.90;;;7.70;99.90;;;;;;5011258;28;20818;-71
2021/12/04 13:24:38;;;;;;;1999.90;999.90;;;7.80;99.90;;;;;;5011100;28;20403;-70
2021/12/04 13:29:42;;;;;;;1999.90;999.90;;;7.80;99.90;;;;;;5011302;28;20396;-71
2021/12/04 13:32:10;;;;;;;1999.90;999.90;;;7.90;99.90;;;;;;5011126;28;20459;-71
2021/12/04 13:34:38;;;;;;;1999.90;999.90;;;7.90;99.90;;;;;;5010484;28;20416;-72
2021/12/04 13:37:05;;;;;;;1999.90;999.90;;;7.90;99.90;;;;;;5010720;28;20520;-71
2021/12/04 13:39:31;;;;;;;1999.90;999.90;;;7.90;99.90;;;;;;5011259;28;20415;-70
2021/12/04 13:41:58;;;;;;;1999.90;999.90;;;7.90;99.90;;;;;;5010809;28;20442;-69
2021/12/04 13:44:26;;;;;;;1999.90;999.90;;;8.00;99.90;;;;;;5010882;28;20426;-71
2021/12/04 13:46:59;;;;;;;1999.90;999.90;;;8.00;99.90;;;;;;5010573;28;20447;-70
2021/12/04 13:52:42;;;;;;;1999.90;999.90;;;8.00;99.90;;;;;;4987946;28;20960;-69
2021/12/04 13:55:11;;;;;;;1999.90;999.90;;;7.90;99.90;;;;;;5012277;28;20414;-70
2021/12/04 13:57:41;;;;;;;1999.90;999.90;;;8.00;99.90;;;;;;5014250;28;20207;-70
2021/12/04 14:00:07;;;;;;;1999.90;999.90;;;7.90;99.90;;;;;;5014540;28;20495;-70
2021/12/04 14:02:33;;;;;;;1999.90;999.90;;;7.90;99.90;;;;;;5014160;28;20436;-71
2021/12/04 14:05:04;;;;;;;1999.90;999.90;;;7.70;99.90;;;;;;5014249;28;20928;-71
2021/12/04 14:07:30;;;;;;;1999.90;999.90;;;7.70;99.90;;;;;;5014022;28;20208;-71
2021/12/04 14:09:56;;;;;;;1999.90;999.90;;;7.70;99.90;;;;;;5014127;28;20404;-71
2021/12/04 14:12:23;;;;;;;1999.90;999.90;;;7.60;99.90;;;;;;5014368;28;20924;-69
2021/12/04 14:14:49;;;;;;;1999.90;999.90;;;7.60;99.90;;;;;;5014137;28;20408;-69
2021/12/04 14:17:17;;;;;;;1999.90;999.90;;;7.60;99.90;;;;;;5013402;28;20428;-70
2021/12/04 14:19:44;;;;;;;1999.90;999.90;;;7.70;99.90;;;;;;5014255;28;20404;-70
2021/12/04 14:22:16;;;;;;;1999.90;999.90;;;7.60;99.90;;;;;;5014155;28;20409;-71
2021/12/04 14:24:59;;;;;;;1999.90;999.90;;;7.40;99.90;;;;;;5013415;28;20470;-71
2021/12/04 14:27:28;;;;;;;1999.90;999.90;;;7.30;99.90;;;;;;5013639;28;20905;-69
2021/12/04 14:29:57;;;;;;;1999.90;999.90;;;7.20;99.90;;;;;;5014253;28;20431;-71
2021/12/04 14:32:25;;;;;;;1999.90;999.90;;;7.10;99.90;;;;;;5013485;28;20841;-69
2021/12/04 14:34:59;;;;;;;1999.90;999.90;;;7.00;99.90;;;;;;5013676;28;20778;-70
2021/12/04 14:37:25;;;;;;;1999.90;999.90;;;6.90;99.90;;;;;;5013543;28;20893;-70
2021/12/04 14:39:52;;;;;;;1999.90;999.90;;;6.80;99.90;;;;;;5014121;28;20836;-70
2021/12/04 14:42:23;;;;;;;1999.90;999.90;;;6.70;99.90;;;;;;5013986;28;20404;-71
2021/12/04 14:45:02;;;;;;;1999.90;999.90;;;6.60;99.90;;;;;;5014028;28;20796;-70
2021/12/04 14:47:33;;;;;;;1999.90;999.90;;;6.60;99.90;;;;;;5012666;28;20458;-71
2021/12/04 14:50:00;;;;;;;1999.90;999.90;;;6.60;99.90;;;;;;5012460;28;20428;-72
2021/12/04 14:52:28;;;;;;;1999.90;999.90;;;6.50;99.90;;;;;;5013581;28;20506;-72
2021/12/04 14:54:55;;;;;;;1999.90;999.90;;;6.40;99.90;;;;;;5012876;28;20404;-72
2021/12/04 14:57:28;;;;;;;1999.90;999.90;;;6.40;99.90;;;;;;5014057;28;20837;-71
2021/12/04 15:00:30;;;;;;;1999.90;999.90;;;6.40;99.90;;;;;;5016894;28;20420;-71
2021/12/04 15:03:02;;;;;;;1999.90;999.90;;;6.40;99.90;;;;;;5012950;28;20399;-71
2021/12/04 15:05:33;;;;;;;1999.90;999.90;;;6.30;99.90;;;;;;5013289;28;20902;-68
2021/12/04 15:08:16;;;;;;;1999.90;999.90;;;6.20;99.90;;;;;;5012969;28;20888;-68
2021/12/04 15:10:46;;;;;;;1999.90;999.90;;;6.20;99.90;;;;;;5013091;28;20412;-68
2021/12/04 15:13:19;;;;;;;1999.90;999.90;;;6.10;99.90;;;;;;5013715;28;20403;-68
2021/12/04 15:15:45;;;;;;;1999.90;999.90;;;6.10;99.90;;;;;;5013900;28;20408;-68
2021/12/04 15:18:13;;;;;;;1999.90;999.90;;;6.00;99.90;;;;;;5012682;28;20435;-68
2021/12/04 15:20:47;;;;;;;1999.90;999.90;;;6.00;99.90;;;;;;5013805;28;20416;-69
2021/12/04 15:23:19;;;;;;;1999.90;999.90;;;5.90;99.90;;;;;;5013826;28;20487;-67